Time;durP1;ratioP1;P1;durP2;ratioP2;P2;SDS_P1;SDS_P2;PMS_P1;PMS_P2;Temp;Humidity;BMP_temperature;BMP_pressure;BME280_temperature;BME280_humidity;BME280_pressure;Samples;Min_cycle;Max_cycle;Signal;HPM_P1;HPM_P2
2023/08/04 00:01:56;;;;;;;4.90;1.40;;;15.50;99.90;;;;;;5029236;28;20423;-69
2023/08/04 00:04:22;;;;;;;5.83;1.23;;;15.50;99.90;;;;;;5027490;28;20469;-69
2023/08/04 00:06:47;;;;;;;5.13;0.70;;;15.40;99.90;;;;;;5037065;28;20037;-69
2023/08/04 00:09:13;;;;;;;5.73;1.30;;;15.40;99.90;;;;;;5035199;28;20045;-69
2023/08/04 00:11:39;;;;;;;6.60;0.93;;;15.40;99.90;;;;;;5065042;28;20041;-69
2023/08/04 00:14:04;;;;;;;6.93;1.07;;;15.40;99.90;;;;;;5048168;28;20505;-69
2023/08/04 00:16:30;;;;;;;5.03;0.80;;;15.40;99.90;;;;;;5040665;28;20124;-69
2023/08/04 00:18:56;;;;;;;4.63;0.90;;;15.40;99.90;;;;;;5038210;28;20064;-69
2023/08/04 00:21:21;;;;;;;5.60;0.83;;;15.40;99.90;;;;;;5038378;28;20080;-69
2023/08/04 00:23:47;;;;;;;4.97;0.80;;;15.40;99.90;;;;;;5021815;28;20457;-69
2023/08/04 00:26:13;;;;;;;2.57;1.00;;;15.40;99.90;;;;;;5045587;28;20029;-69
2023/08/04 00:28:38;;;;;;;5.03;1.20;;;15.40;99.90;;;;;;5034741;28;20468;-71
2023/08/04 00:31:04;;;;;;;4.40;0.73;;;15.40;99.90;;;;;;5037503;28;20045;-72
2023/08/04 00:33:30;;;;;;;3.63;0.77;;;15.40;99.90;;;;;;5029362;28;20064;-72
2023/08/04 00:35:55;;;;;;;7.53;1.10;;;15.40;99.90;;;;;;5040561;28;20041;-72
2023/08/04 00:38:21;;;;;;;7.83;0.90;;;15.40;99.90;;;;;;5036922;28;20128;-72
2023/08/04 00:40:46;;;;;;;5.50;1.13;;;15.40;99.90;;;;;;5035752;28;20509;-72
2023/08/04 00:43:12;;;;;;;7.07;1.13;;;15.50;99.90;;;;;;5044181;28;20072;-72
2023/08/04 00:45:38;;;;;;;5.97;1.33;;;15.50;99.90;;;;;;5040231;28;20073;-72
2023/08/04 00:48:04;;;;;;;11.00;1.30;;;15.50;99.90;;;;;;5041370;28;20072;-72
2023/08/04 00:50:32;;;;;;;8.07;1.17;;;15.50;99.90;;;;;;5032884;28;20375;-72
2023/08/04 00:52:59;;;;;;;6.77;0.90;;;15.50;99.90;;;;;;5038727;28;20379;-71
2023/08/04 00:55:26;;;;;;;3.30;0.80;;;15.50;99.90;;;;;;5046058;28;20935;-71
2023/08/04 00:57:53;;;;;;;5.60;1.00;;;15.50;99.90;;;;;;5044940;28;20279;-72
2023/08/04 01:00:19;;;;;;;5.30;1.00;;;15.50;99.90;;;;;;5043667;28;21020;-72
2023/08/04 01:02:45;;;;;;;2.07;0.90;;;15.40;99.90;;;;;;5025860;28;20316;-72
2023/08/04 01:05:11;;;;;;;6.40;1.47;;;15.40;99.90;;;;;;5035082;28;20113;-72
2023/08/04 01:07:49;;;;;;;6.97;0.93;;;15.40;99.90;;;;;;5046022;28;20050;-72
2023/08/04 01:11:04;;;;;;;6.10;1.10;;;15.40;99.90;;;;;;5045391;28;20095;-72
2023/08/04 01:13:30;;;;;;;3.87;0.90;;;15.30;99.90;;;;;;5023757;28;20287;-72
2023/08/04 01:15:57;;;;;;;7.50;1.57;;;15.30;99.90;;;;;;5036803;28;20290;-72
2023/08/04 01:18:23;;;;;;;3.57;0.90;;;15.30;99.90;;;;;;5039384;28;21039;-72
2023/08/04 01:20:50;;;;;;;5.50;1.13;;;15.20;99.90;;;;;;5039991;28;20335;-72
2023/08/04 01:23:16;;;;;;;1.93;0.70;;;15.20;99.90;;;;;;5040134;28;20400;-71
2023/08/04 01:25:42;;;;;;;2.73;0.60;;;15.20;99.90;;;;;;5029707;28;20284;-71
2023/08/04 01:28:16;;;;;;;3.87;0.83;;;15.20;99.90;;;;;;5040934;28;20576;-71
2023/08/04 01:30:47;;;;;;;2.70;0.80;;;15.10;99.90;;;;;;5038578;28;20362;-71
2023/08/04 01:33:14;;;;;;;3.57;0.60;;;15.10;99.90;;;;;;5035749;28;20288;-72
2023/08/04 01:35:40;;;;;;;2.93;0.50;;;15.10;99.90;;;;;;5036572;28;20288;-72
2023/08/04 01:38:06;;;;;;;2.37;0.57;;;15.10;99.90;;;;;;5045738;28;20290;-72
2023/08/04 01:40:31;;;;;;;2.63;0.63;;;15.10;99.90;;;;;;5040175;28;20067;-72
2023/08/04 01:42:57;;;;;;;2.83;0.50;;;15.00;99.90;;;;;;5043186;28;20037;-72
2023/08/04 01:45:23;;;;;;;3.40;0.67;;;15.00;99.90;;;;;;5034442;28;20500;-72
2023/08/04 01:47:48;;;;;;;3.33;0.60;;;15.00;99.90;;;;;;5027465;28;20068;-72
2023/08/04 01:50:14;;;;;;;1.27;0.53;;;15.00;99.90;;;;;;5032651;28;20099;-72
2023/08/04 01:52:40;;;;;;;3.10;0.90;;;15.00;99.90;;;;;;5022222;28;20509;-72
2023/08/04 01:55:06;;;;;;;4.93;0.60;;;15.00;99.90;;;;;;5030839;28;20100;-72
2023/08/04 01:57:32;;;;;;;3.63;0.93;;;14.90;99.90;;;;;;5040831;28;20120;-72
2023/08/04 01:59:57;;;;;;;2.30;0.80;;;14.90;99.90;;;;;;5046213;28;20631;-72
2023/08/04 02:02:23;;;;;;;1.87;0.73;;;14.90;99.90;;;;;;5024304;28;20099;-72
2023/08/04 02:04:49;;;;;;;4.33;0.87;;;14.90;99.90;;;;;;5028453;28;20040;-72
2023/08/04 02:07:14;;;;;;;3.03;0.80;;;14.80;99.90;;;;;;5036190;28;20137;-72
2023/08/04 02:09:41;;;;;;;3.00;0.97;;;14.80;99.90;;;;;;5032450;28;20099;-72
2023/08/04 02:12:08;;;;;;;4.00;1.10;;;14.70;99.90;;;;;;5037216;28;20076;-72
2023/08/04 02:14:33;;;;;;;1.80;0.60;;;14.70;99.90;;;;;;5039472;28;20379;-72
2023/08/04 02:16:59;;;;;;;6.10;0.80;;;14.70;99.90;;;;;;5038666;28;20722;-71
2023/08/04 02:19:25;;;;;;;1.30;0.60;;;14.60;99.90;;;;;;5043460;28;20057;-71
2023/08/04 02:21:51;;;;;;;3.80;1.00;;;14.60;99.90;;;;;;5039477;28;20052;-71
2023/08/04 02:24:17;;;;;;;5.17;0.67;;;14.50;99.90;;;;;;5023867;28;20048;-71
2023/08/04 02:26:46;;;;;;;4.57;1.07;;;14.50;99.90;;;;;;5028773;28;20033;-72
2023/08/04 02:29:12;;;;;;;3.97;0.97;;;14.50;99.90;;;;;;5034656;28;20340;-71
2023/08/04 02:31:39;;;;;;;4.60;0.87;;;14.50;99.90;;;;;;5037035;28;20344;-71
2023/08/04 02:34:06;;;;;;;1.37;0.73;;;14.50;99.90;;;;;;5039814;28;20291;-71
2023/08/04 02:36:31;;;;;;;2.27;0.80;;;14.50;99.90;;;;;;5044138;28;20279;-71
2023/08/04 02:38:57;;;;;;;2.57;0.50;;;14.50;99.90;;;;;;5035049;28;20295;-71
2023/08/04 02:41:23;;;;;;;6.47;1.17;;;14.50;99.90;;;;;;5042332;28;20041;-71
2023/08/04 02:43:49;;;;;;;3.00;0.80;;;14.60;99.90;;;;;;5043972;28;20036;-72
2023/08/04 02:46:14;;;;;;;1.70;0.73;;;14.60;99.90;;;;;;5038931;28;20661;-72
2023/08/04 02:48:40;;;;;;;3.60;0.83;;;14.60;99.90;;;;;;5030420;28;20026;-72
2023/08/04 02:51:11;;;;;;;3.37;0.80;;;14.60;99.90;;;;;;5043334;28;20051;-72
2023/08/04 02:53:40;;;;;;;4.37;1.20;;;14.60;99.90;;;;;;5037281;28;20052;-72
2023/08/04 02:56:16;;;;;;;4.33;0.90;;;14.60;99.90;;;;;;5041910;28;20292;-72
2023/08/04 02:58:43;;;;;;;3.87;1.40;;;14.60;99.90;;;;;;5042380;28;20284;-72
2023/08/04 03:01:09;;;;;;;4.13;1.27;;;14.70;99.90;;;;;;5042786;28;20307;-72
2023/08/04 03:03:35;;;;;;;4.10;1.30;;;14.70;99.90;;;;;;5035307;28;20305;-72
2023/08/04 03:06:02;;;;;;;4.20;1.50;;;14.70;99.90;;;;;;5027004;28;20641;-72
2023/08/04 03:08:28;;;;;;;2.67;1.60;;;14.70;99.90;;;;;;5062720;28;20524;-72
2023/08/04 03:10:54;;;;;;;3.10;1.30;;;14.80;99.90;;;;;;5039824;28;20363;-72
2023/08/04 03:13:20;;;;;;;4.87;1.33;;;14.80;99.90;;;;;;5064085;28;20379;-72
2023/08/04 03:15:47;;;;;;;6.00;1.87;;;14.80;99.90;;;;;;5043179;28;20220;-72
2023/08/04 03:18:12;;;;;;;4.53;1.63;;;14.70;99.90;;;;;;5038854;28;20296;-72
2023/08/04 03:20:39;;;;;;;5.77;1.60;;;14.70;99.90;;;;;;5041380;28;20779;-72
2023/08/04 03:23:06;;;;;;;3.70;1.83;;;14.60;99.90;;;;;;5044602;28;20033;-72
2023/08/04 03:25:33;;;;;;;5.90;1.83;;;14.60;99.90;;;;;;5037305;28;20280;-72
2023/08/04 03:27:59;;;;;;;5.77;1.50;;;14.50;99.90;;;;;;5036337;28;20707;-72
2023/08/04 03:30:25;;;;;;;3.83;1.70;;;14.50;99.90;;;;;;5031518;28;20280;-72
2023/08/04 03:32:50;;;;;;;7.03;2.20;;;14.40;99.90;;;;;;5047715;28;20279;-72
2023/08/04 03:35:16;;;;;;;7.90;2.33;;;14.40;99.90;;;;;;5033221;28;20467;-72
2023/08/04 03:37:42;;;;;;;5.47;2.20;;;14.40;99.90;;;;;;5040200;28;20029;-72
2023/08/04 03:40:08;;;;;;;7.57;2.33;;;14.50;99.90;;;;;;5037619;28;20170;-72
2023/08/04 03:42:38;;;;;;;8.03;2.47;;;14.50;99.90;;;;;;5048074;28;20048;-72
2023/08/04 03:45:07;;;;;;;6.80;2.00;;;14.50;99.90;;;;;;5058507;28;20641;-72
2023/08/04 03:47:36;;;;;;;7.67;2.00;;;14.50;99.90;;;;;;5034582;28;20342;-72
2023/08/04 03:50:03;;;;;;;4.77;2.00;;;14.60;99.90;;;;;;5021575;28;20768;-72
2023/08/04 03:52:29;;;;;;;10.37;1.53;;;14.60;99.90;;;;;;5039868;28;20391;-72
2023/08/04 03:54:55;;;;;;;6.50;1.53;;;14.60;99.90;;;;;;5049348;28;20359;-72
2023/08/04 03:57:21;;;;;;;9.70;2.20;;;14.60;99.90;;;;;;5047530;28;20882;-72
2023/08/04 03:59:47;;;;;;;6.63;1.90;;;14.70;99.90;;;;;;5031468;28;20072;-72
2023/08/04 04:02:13;;;;;;;8.07;2.17;;;14.70;99.90;;;;;;5039860;28;20045;-72
2023/08/04 04:04:39;;;;;;;3.20;1.60;;;14.70;99.90;;;;;;5043917;28;20295;-72
2023/08/04 04:07:05;;;;;;;5.97;1.67;;;14.70;99.90;;;;;;5045964;28;20047;-72
2023/08/04 04:09:31;;;;;;;5.53;1.90;;;14.70;99.90;;;;;;5038061;28;20272;-72
2023/08/04 04:11:57;;;;;;;4.57;1.40;;;14.80;99.90;;;;;;5034347;28;20409;-72
2023/08/04 04:14:22;;;;;;;5.87;1.70;;;14.80;99.90;;;;;;5039063;28;20049;-72
2023/08/04 04:16:48;;;;;;;3.07;1.37;;;14.80;99.90;;;;;;5037249;28;20040;-72
2023/08/04 04:19:14;;;;;;;5.30;1.77;;;14.80;99.90;;;;;;5043069;28;20335;-72
2023/08/04 04:21:39;;;;;;;4.07;1.50;;;14.80;99.90;;;;;;5026658;28;20049;-72
2023/08/04 04:24:05;;;;;;;4.40;1.60;;;14.80;99.90;;;;;;5033265;28;20482;-72
2023/08/04 04:26:31;;;;;;;5.83;1.57;;;14.80;99.90;;;;;;5036579;28;20076;-72
2023/08/04 04:28:56;;;;;;;3.00;1.37;;;14.90;99.90;;;;;;5024713;28;20082;-72
2023/08/04 04:31:22;;;;;;;4.47;1.63;;;14.90;99.90;;;;;;5039568;28;20069;-72
2023/08/04 04:33:48;;;;;;;7.03;1.77;;;14.90;99.90;;;;;;5030610;28;20477;-72
2023/08/04 04:36:14;;;;;;;4.27;1.37;;;14.90;99.90;;;;;;5035066;28;20045;-72
2023/08/04 04:38:39;;;;;;;4.67;1.50;;;15.00;99.90;;;;;;5033226;28;20604;-72
2023/08/04 04:41:05;;;;;;;3.37;1.50;;;15.00;99.90;;;;;;5035907;28;20564;-72
2023/08/04 04:43:31;;;;;;;4.40;1.50;;;15.00;99.90;;;;;;5043695;28;20056;-72
2023/08/04 04:45:56;;;;;;;5.60;1.80;;;15.00;99.90;;;;;;5036188;28;20056;-72
2023/08/04 04:48:23;;;;;;;5.17;1.50;;;15.00;99.90;;;;;;5038891;28;20059;-72
2023/08/04 04:50:52;;;;;;;6.43;1.83;;;15.10;99.90;;;;;;5015350;28;20117;-72
2023/08/04 04:53:18;;;;;;;5.60;1.40;;;15.10;99.90;;;;;;5020017;28;20302;-72
2023/08/04 04:55:44;;;;;;;3.87;1.70;;;15.10;99.90;;;;;;5036023;28;20288;-72
2023/08/04 04:58:12;;;;;;;3.03;1.40;;;15.20;99.90;;;;;;5027509;28;20038;-72
2023/08/04 05:00:38;;;;;;;3.97;1.83;;;15.20;99.90;;;;;;5047635;28;20619;-72
2023/08/04 05:03:06;;;;;;;4.53;1.67;;;15.20;99.90;;;;;;5035304;28;20292;-72
2023/08/04 05:05:32;;;;;;;4.50;1.90;;;15.20;99.90;;;;;;5033905;28;20775;-72
2023/08/04 05:07:59;;;;;;;4.63;1.57;;;15.30;99.90;;;;;;5043569;28;20283;-72
2023/08/04 05:10:25;;;;;;;2.87;1.77;;;15.30;99.90;;;;;;5045687;28;20636;-72
2023/08/04 05:12:51;;;;;;;4.30;1.73;;;15.40;99.90;;;;;;5038294;28;20294;-72
2023/08/04 05:15:17;;;;;;;5.20;1.90;;;15.40;99.90;;;;;;5028638;28;20283;-72
2023/08/04 05:17:42;;;;;;;4.73;1.77;;;15.50;99.90;;;;;;5041332;28;20816;-72
2023/08/04 05:20:09;;;;;;;6.53;1.80;;;15.50;99.90;;;;;;5005888;28;20058;-72
2023/08/04 05:22:34;;;;;;;4.87;2.07;;;15.60;99.90;;;;;;5007134;28;20037;-72
2023/08/04 05:25:00;;;;;;;5.43;2.27;;;15.60;99.90;;;;;;4991771;28;20359;-70
2023/08/04 05:27:26;;;;;;;3.60;1.70;;;15.80;99.90;;;;;;5009597;28;20037;-70
2023/08/04 05:29:52;;;;;;;7.23;2.20;;;15.90;99.90;;;;;;5017924;28;20685;-70
2023/08/04 05:32:17;;;;;;;7.13;2.30;;;15.90;99.90;;;;;;5004332;28;20073;-70
2023/08/04 05:34:43;;;;;;;4.23;1.80;;;16.00;99.90;;;;;;4999638;28;20389;-70
2023/08/04 05:37:09;;;;;;;5.13;2.17;;;16.00;99.90;;;;;;5002731;28;20160;-70
2023/08/04 05:39:34;;;;;;;7.17;2.27;;;16.00;99.90;;;;;;5002523;28;20056;-70
2023/08/04 05:42:01;;;;;;;5.83;2.30;;;16.10;99.90;;;;;;5005531;28;20033;-70
2023/08/04 05:44:28;;;;;;;5.57;2.13;;;16.10;99.90;;;;;;5007388;28;20033;-70
2023/08/04 05:46:53;;;;;;;4.63;1.83;;;16.10;99.90;;;;;;4995783;28;20866;-70
2023/08/04 05:49:19;;;;;;;5.80;2.10;;;16.20;99.90;;;;;;4995672;28;20319;-70
2023/08/04 05:51:46;;;;;;;5.40;2.13;;;16.30;99.90;;;;;;4983197;28;20045;-70
2023/08/04 05:54:12;;;;;;;5.73;1.97;;;16.40;99.90;;;;;;5003325;28;21696;-70
2023/08/04 05:56:37;;;;;;;3.97;1.93;;;16.50;99.90;;;;;;5008829;28;20363;-70
2023/08/04 05:59:03;;;;;;;5.17;2.00;;;16.50;99.90;;;;;;4998723;28;20045;-70
2023/08/04 06:01:29;;;;;;;5.93;2.23;;;16.50;99.90;;;;;;4986895;28;20128;-70
2023/08/04 06:03:55;;;;;;;3.80;1.90;;;16.50;99.90;;;;;;4983339;28;20045;-70
2023/08/04 06:06:21;;;;;;;5.17;2.40;;;16.50;99.90;;;;;;4998603;28;20612;-70
2023/08/04 06:08:47;;;;;;;4.60;2.30;;;16.50;99.90;;;;;;5001763;28;20038;-70
2023/08/04 06:11:13;;;;;;;5.00;2.03;;;16.60;99.90;;;;;;4998348;28;20284;-71
2023/08/04 06:13:40;;;;;;;4.97;2.40;;;16.70;99.90;;;;;;4995154;28;20092;-70
2023/08/04 06:16:06;;;;;;;6.00;2.13;;;16.70;99.90;;;;;;5004897;28;20284;-70
2023/08/04 06:18:32;;;;;;;3.47;2.30;;;16.80;99.90;;;;;;5010602;28;20295;-70
2023/08/04 06:20:58;;;;;;;4.37;2.30;;;16.90;99.90;;;;;;5025161;28;20316;-70
2023/08/04 06:23:24;;;;;;;5.97;2.47;;;17.00;99.90;;;;;;5026063;28;20597;-70
2023/08/04 06:25:50;;;;;;;4.50;2.60;;;17.00;99.90;;;;;;5033827;28;20037;-70
2023/08/04 06:28:16;;;;;;;4.23;2.03;;;17.10;99.90;;;;;;5045026;28;20026;-70
2023/08/04 06:30:42;;;;;;;5.53;1.87;;;17.20;99.90;;;;;;5035033;28;20052;-70
2023/08/04 06:33:07;;;;;;;6.63;1.50;;;17.30;99.90;;;;;;5044790;28;20390;-70
2023/08/04 06:35:33;;;;;;;3.40;1.40;;;17.40;99.80;;;;;;5034323;28;20414;-70
2023/08/04 06:37:59;;;;;;;3.90;1.27;;;17.50;99.00;;;;;;5045092;28;20044;-70
2023/08/04 06:40:25;;;;;;;3.70;1.50;;;17.60;97.30;;;;;;5023969;28;20288;-70
2023/08/04 06:42:53;;;;;;;7.07;1.60;;;17.70;96.10;;;;;;5032477;28;20048;-70
2023/08/04 06:45:18;;;;;;;3.40;1.20;;;17.80;96.40;;;;;;5044470;28;20180;-70
2023/08/04 06:47:44;;;;;;;3.23;1.30;;;17.80;95.60;;;;;;5040178;28;20531;-70
2023/08/04 06:50:10;;;;;;;3.70;1.00;;;18.00;95.40;;;;;;5047420;28;20048;-70
2023/08/04 06:52:36;;;;;;;3.13;0.93;;;18.00;93.50;;;;;;5050207;28;20045;-70
2023/08/04 06:55:01;;;;;;;3.07;0.70;;;18.20;93.70;;;;;;5058429;28;20662;-70
2023/08/04 06:57:27;;;;;;;3.87;1.00;;;18.20;91.90;;;;;;5047166;28;20036;-70
2023/08/04 06:59:53;;;;;;;2.73;0.90;;;18.10;90.00;;;;;;5034999;28;20106;-70
2023/08/04 07:02:18;;;;;;;4.73;1.20;;;17.80;90.30;;;;;;5030593;28;20512;-70
2023/08/04 07:04:44;;;;;;;2.90;0.87;;;17.30;90.80;;;;;;5020782;28;20075;-70
2023/08/04 07:07:10;;;;;;;3.83;0.97;;;16.90;92.50;;;;;;5039764;28;20041;-70
2023/08/04 07:09:36;;;;;;;3.17;0.97;;;16.60;93.20;;;;;;5050583;28;20225;-70
2023/08/04 07:12:01;;;;;;;2.90;1.13;;;16.40;94.20;;;;;;5038270;28;20386;-71
2023/08/04 07:14:27;;;;;;;4.93;0.93;;;16.20;95.20;;;;;;5038417;28;20120;-71
2023/08/04 07:16:53;;;;;;;2.70;0.93;;;16.20;96.20;;;;;;5025955;28;20048;-71
2023/08/04 07:19:18;;;;;;;3.83;1.00;;;16.30;97.20;;;;;;5043397;28;20052;-71
2023/08/04 07:21:44;;;;;;;3.63;1.00;;;16.40;97.70;;;;;;5054637;28;20701;-73
2023/08/04 07:24:11;;;;;;;3.60;1.10;;;16.50;98.20;;;;;;5031346;28;20080;-73
2023/08/04 07:26:37;;;;;;;4.03;1.60;;;16.70;98.30;;;;;;5054825;28;20044;-73
2023/08/04 07:29:03;;;;;;;4.77;1.30;;;16.70;97.50;;;;;;5048628;28;20272;-73
2023/08/04 07:31:29;;;;;;;10.10;2.20;;;16.80;97.40;;;;;;5044917;28;20496;-74
2023/08/04 07:33:55;;;;;;;5.03;1.80;;;16.90;97.10;;;;;;5050408;28;20301;-73
2023/08/04 07:36:21;;;;;;;5.37;1.70;;;17.10;97.40;;;;;;5030524;28;20070;-73
2023/08/04 07:38:47;;;;;;;5.20;1.93;;;17.20;97.60;;;;;;5041210;28;20282;-74
2023/08/04 07:41:19;;;;;;;5.50;2.07;;;17.40;96.60;;;;;;5049972;28;20677;-73
2023/08/04 07:43:45;;;;;;;6.90;2.17;;;17.50;95.80;;;;;;5038306;28;20041;-73
2023/08/04 07:46:23;;;;;;;6.33;1.57;;;17.60;95.00;;;;;;5044910;28;20310;-74
2023/08/04 07:48:50;;;;;;;6.37;1.77;;;17.70;94.00;;;;;;5039575;28;20044;-73
2023/08/04 07:51:16;;;;;;;8.63;1.73;;;17.80;94.10;;;;;;5029644;28;20038;-72
2023/08/04 07:53:41;;;;;;;7.60;1.50;;;17.90;93.20;;;;;;5048606;28;20286;-74
2023/08/04 07:56:07;;;;;;;6.20;1.57;;;17.90;91.80;;;;;;5050051;28;20041;-72
2023/08/04 07:58:33;;;;;;;8.33;1.63;;;18.00;92.50;;;;;;5048226;28;20041;-73
2023/08/04 08:00:59;;;;;;;7.93;1.97;;;18.00;91.70;;;;;;5040223;28;20041;-73
2023/08/04 08:03:25;;;;;;;6.70;1.37;;;18.10;91.50;;;;;;5020679;28;20033;-73
2023/08/04 08:05:50;;;;;;;8.90;1.27;;;18.20;92.30;;;;;;5028853;28;20037;-72
2023/08/04 08:08:18;;;;;;;8.20;1.60;;;18.20;92.60;;;;;;5044403;28;20041;-73
2023/08/04 08:10:44;;;;;;;4.83;1.40;;;18.30;90.90;;;;;;5030140;28;20040;-73
2023/08/04 08:13:10;;;;;;;5.80;1.43;;;18.30;92.00;;;;;;5047475;28;20498;-73
2023/08/04 08:15:36;;;;;;;5.43;1.30;;;18.40;91.10;;;;;;5034845;28;20105;-73
2023/08/04 08:18:03;;;;;;;8.73;1.73;;;18.40;90.30;;;;;;5034793;28;20061;-74
2023/08/04 08:20:29;;;;;;;5.17;1.60;;;18.40;90.10;;;;;;5042484;28;20044;-74
2023/08/04 08:22:56;;;;;;;4.23;1.40;;;18.50;90.30;;;;;;5040203;28;20033;-73
2023/08/04 08:25:22;;;;;;;5.03;1.40;;;18.50;90.40;;;;;;5029894;28;20537;-73
2023/08/04 08:27:48;;;;;;;4.77;1.40;;;18.60;89.00;;;;;;5040718;28;20128;-73
2023/08/04 08:30:15;;;;;;;9.57;1.50;;;18.60;88.90;;;;;;5043662;28;20389;-73
2023/08/04 08:32:41;;;;;;;4.40;1.40;;;18.70;88.60;;;;;;5047465;28;20052;-73
2023/08/04 08:35:07;;;;;;;4.07;0.97;;;18.90;86.90;;;;;;5038851;28;20037;-74
2023/08/04 08:37:33;;;;;;;5.67;1.40;;;19.00;86.90;;;;;;5024836;28;20037;-73
2023/08/04 08:39:58;;;;;;;5.37;1.00;;;19.10;84.30;;;;;;5046886;28;20527;-73
2023/08/04 08:42:24;;;;;;;3.30;1.07;;;19.10;83.10;;;;;;5039868;28;20041;-73
2023/08/04 08:44:50;;;;;;;6.60;1.30;;;19.10;83.00;;;;;;5056564;28;20538;-73
2023/08/04 08:47:20;;;;;;;3.43;1.20;;;19.20;83.00;;;;;;5039843;28;20041;-74
2023/08/04 08:49:48;;;;;;;8.30;1.17;;;19.40;83.10;;;;;;5040792;28;20871;-72
2023/08/04 08:52:13;;;;;;;4.50;1.17;;;19.40;81.70;;;;;;5039617;28;20043;-73
2023/08/04 08:54:39;;;;;;;5.10;1.30;;;19.50;81.70;;;;;;5046839;28;20045;-73
2023/08/04 08:57:06;;;;;;;5.17;1.30;;;19.50;80.80;;;;;;5051497;28;20393;-74
2023/08/04 08:59:33;;;;;;;6.30;1.50;;;19.50;82.30;;;;;;5046281;28;21357;-73
2023/08/04 09:02:00;;;;;;;5.70;1.23;;;19.50;81.80;;;;;;5032866;28;20124;-71
2023/08/04 09:04:27;;;;;;;6.43;1.27;;;19.60;81.70;;;;;;5044380;28;20052;-71
2023/08/04 09:06:55;;;;;;;3.93;1.20;;;19.50;80.70;;;;;;5034368;28;20061;-71
2023/08/04 09:09:21;;;;;;;5.63;1.47;;;19.30;81.60;;;;;;5029690;28;20645;-71
2023/08/04 09:11:48;;;;;;;3.27;1.03;;;19.10;82.50;;;;;;5035635;28;20075;-71
2023/08/04 09:14:15;;;;;;;10.83;1.63;;;19.00;83.00;;;;;;5048884;28;20116;-71
2023/08/04 09:16:42;;;;;;;6.80;1.43;;;19.00;83.10;;;;;;5047420;28;20029;-71
2023/08/04 09:19:09;;;;;;;7.00;1.77;;;19.10;82.60;;;;;;5038207;28;20116;-71
2023/08/04 09:21:36;;;;;;;7.37;1.83;;;19.20;81.20;;;;;;5047404;28;20083;-70
2023/08/04 09:24:09;;;;;;;8.70;1.67;;;19.30;81.30;;;;;;5036042;28;20429;-71
2023/08/04 09:26:45;;;;;;;9.20;1.60;;;19.50;81.90;;;;;;5046967;28;20045;-71
2023/08/04 09:29:13;;;;;;;4.70;1.60;;;20.00;80.20;;;;;;5013861;28;20490;-71
2023/08/04 09:31:46;;;;;;;6.10;1.90;;;20.30;77.30;;;;;;5033380;28;20049;-71
2023/08/04 09:34:12;;;;;;;3.73;1.37;;;20.40;78.10;;;;;;5043359;28;20045;-71
2023/08/04 09:36:42;;;;;;;6.23;1.30;;;20.50;75.30;;;;;;5042693;28;20037;-71
2023/08/04 09:39:09;;;;;;;5.07;1.20;;;20.60;75.60;;;;;;5031534;28;20045;-72
2023/08/04 09:41:46;;;;;;;6.67;1.30;;;20.70;75.00;;;;;;5030844;28;20048;-72
2023/08/04 09:44:14;;;;;;;6.47;1.40;;;20.70;73.70;;;;;;5024447;28;20048;-71
2023/08/04 09:46:53;;;;;;;8.70;1.93;;;20.60;72.80;;;;;;5035893;28;20039;-71
2023/08/04 09:49:20;;;;;;;6.87;1.60;;;20.40;72.50;;;;;;5040149;28;20045;-71
2023/08/04 09:51:46;;;;;;;5.43;1.20;;;20.50;73.90;;;;;;5037193;28;20073;-71
2023/08/04 09:54:13;;;;;;;6.17;1.43;;;20.70;72.90;;;;;;5039102;28;20036;-71
2023/08/04 09:56:39;;;;;;;6.00;1.17;;;20.80;72.60;;;;;;5019679;28;20049;-71
2023/08/04 09:59:05;;;;;;;7.17;1.60;;;20.90;72.70;;;;;;5040834;28;20390;-71
2023/08/04 10:01:31;;;;;;;5.20;1.47;;;21.10;73.10;;;;;;5036630;28;20045;-71
2023/08/04 10:03:57;;;;;;;6.43;1.20;;;21.30;72.50;;;;;;5035136;28;20393;-71
2023/08/04 10:06:24;;;;;;;4.53;1.53;;;21.40;71.60;;;;;;5036669;28;20089;-71
2023/08/04 10:08:53;;;;;;;6.57;1.67;;;21.40;70.70;;;;;;5048248;28;20076;-71
2023/08/04 10:11:20;;;;;;;6.70;1.40;;;21.30;70.30;;;;;;5037411;28;20056;-71
2023/08/04 10:13:51;;;;;;;9.87;2.40;;;21.10;71.40;;;;;;5047692;28;20041;-71
2023/08/04 10:16:19;;;;;;;4.90;1.90;;;20.90;72.10;;;;;;5039976;28;20954;-72
2023/08/04 10:18:51;;;;;;;7.10;1.50;;;20.80;71.90;;;;;;5039662;28;20431;-72
2023/08/04 10:21:19;;;;;;;6.20;1.67;;;20.50;71.20;;;;;;5043435;28;20077;-72
2023/08/04 10:23:45;;;;;;;6.17;1.70;;;20.40;71.30;;;;;;5048015;28;20043;-72
2023/08/04 10:26:12;;;;;;;6.47;1.17;;;20.40;71.90;;;;;;5040699;28;20037;-72
2023/08/04 10:29:03;;;;;;;5.70;1.50;;;20.50;71.90;;;;;;5043466;28;20714;-72
2023/08/04 10:31:44;;;;;;;7.23;1.40;;;20.70;71.20;;;;;;5035530;28;20118;-72
2023/08/04 10:34:28;;;;;;;6.50;1.33;;;20.90;71.70;;;;;;5041797;28;20048;-72
2023/08/04 10:37:15;;;;;;;8.03;1.83;;;21.10;72.10;;;;;;5040640;28;20041;-72
2023/08/04 10:39:44;;;;;;;4.20;1.20;;;21.10;69.80;;;;;;5044948;28;20436;-72
2023/08/04 10:42:20;;;;;;;6.03;1.20;;;20.90;70.90;;;;;;5039133;28;20041;-72
2023/08/04 10:45:09;;;;;;;6.87;1.37;;;20.70;70.20;;;;;;5033769;28;20041;-72
2023/08/04 10:47:45;;;;;;;6.27;1.40;;;20.70;70.90;;;;;;5036694;28;20083;-72
2023/08/04 10:50:13;;;;;;;5.40;1.30;;;20.70;71.50;;;;;;5034280;28;20065;-72
2023/08/04 10:52:40;;;;;;;4.10;1.00;;;20.60;70.00;;;;;;5043257;28;20052;-72
2023/08/04 10:55:09;;;;;;;4.63;0.93;;;20.50;70.00;;;;;;5040516;28;20401;-72
2023/08/04 10:57:36;;;;;;;4.07;0.80;;;20.50;70.20;;;;;;5031789;28;20073;-72
2023/08/04 11:00:08;;;;;;;5.00;0.90;;;20.60;71.00;;;;;;5042555;28;20076;-72
2023/08/04 11:02:35;;;;;;;6.40;1.47;;;20.90;70.00;;;;;;5035140;28;20124;-72
2023/08/04 11:05:03;;;;;;;6.00;0.90;;;21.00;68.90;;;;;;5047296;28;20370;-72
2023/08/04 11:07:29;;;;;;;3.33;0.80;;;21.00;68.00;;;;;;5040946;28;20037;-72
2023/08/04 11:09:55;;;;;;;3.07;1.07;;;20.90;68.60;;;;;;5038749;28;20037;-72
2023/08/04 11:12:21;;;;;;;5.07;1.10;;;20.70;68.90;;;;;;5041287;28;20485;-72
2023/08/04 11:14:51;;;;;;;2.17;0.40;;;20.60;70.10;;;;;;5050238;28;20035;-72
2023/08/04 11:17:21;;;;;;;4.27;0.90;;;20.40;69.10;;;;;;5040370;28;20390;-72
2023/08/04 11:19:50;;;;;;;3.30;1.03;;;20.20;70.70;;;;;;5041255;28;20049;-72
2023/08/04 11:22:17;;;;;;;3.47;0.60;;;20.40;71.80;;;;;;5029076;28;20503;-72
2023/08/04 11:24:44;;;;;;;4.20;0.83;;;20.70;71.20;;;;;;5040209;28;20064;-72
2023/08/04 11:27:11;;;;;;;3.10;0.50;;;21.10;71.10;;;;;;5039048;28;20086;-72
2023/08/04 11:29:38;;;;;;;4.03;1.03;;;21.50;69.30;;;;;;5045516;28;20033;-72
2023/08/04 11:32:10;;;;;;;4.17;1.13;;;21.60;67.60;;;;;;5039101;28;20440;-72
2023/08/04 11:34:38;;;;;;;4.83;1.13;;;21.70;68.20;;;;;;5037167;28;20045;-72
2023/08/04 11:37:04;;;;;;;8.10;1.50;;;21.80;68.20;;;;;;5053289;28;20033;-72
2023/08/04 11:39:30;;;;;;;6.20;1.60;;;21.70;67.60;;;;;;5043392;28;20756;-72
2023/08/04 11:41:56;;;;;;;5.13;1.30;;;21.60;67.70;;;;;;5033888;28;20037;-72
2023/08/04 11:44:22;;;;;;;3.60;1.33;;;21.60;68.30;;;;;;5039545;28;20037;-72
2023/08/04 11:46:48;;;;;;;7.17;1.60;;;21.40;68.20;;;;;;5041829;28;20359;-71
2023/08/04 11:49:14;;;;;;;6.10;1.20;;;21.20;68.30;;;;;;5044493;28;20036;-72
2023/08/04 11:51:44;;;;;;;4.10;1.13;;;21.10;67.90;;;;;;5045253;28;20090;-72
2023/08/04 11:54:22;;;;;;;3.57;0.60;;;21.00;67.80;;;;;;5019235;28;20612;-72
2023/08/04 11:56:55;;;;;;;3.83;0.63;;;20.90;65.70;;;;;;5042502;28;20619;-72
2023/08/04 11:59:21;;;;;;;4.90;1.03;;;20.80;66.60;;;;;;5023085;28;20049;-72
2023/08/04 12:01:47;;;;;;;3.53;0.80;;;20.70;67.70;;;;;;5040662;28;20120;-72
2023/08/04 12:04:23;;;;;;;3.50;0.80;;;20.80;67.70;;;;;;5045407;28;20041;-73
2023/08/04 12:07:05;;;;;;;3.80;0.70;;;20.90;68.30;;;;;;5043840;28;20081;-72
2023/08/04 12:09:31;;;;;;;3.73;0.70;;;21.20;67.70;;;;;;5026566;28;20126;-73
2023/08/04 12:11:57;;;;;;;5.27;1.20;;;21.40;67.10;;;;;;5049007;28;20052;-72
2023/08/04 12:14:23;;;;;;;4.03;0.83;;;21.70;67.00;;;;;;5037026;28;20470;-72
2023/08/04 12:16:56;;;;;;;4.97;1.13;;;21.90;66.50;;;;;;5047490;28;20120;-72
2023/08/04 12:19:32;;;;;;;3.83;0.90;;;22.10;66.30;;;;;;5032885;28;20492;-72
2023/08/04 12:22:00;;;;;;;3.77;0.80;;;22.30;64.50;;;;;;5038504;28;20077;-73
2023/08/04 12:24:30;;;;;;;1.93;0.63;;;22.00;64.80;;;;;;5034602;28;20650;-73
2023/08/04 12:26:56;;;;;;;3.10;0.80;;;21.90;64.40;;;;;;5040738;28;20073;-73
2023/08/04 12:29:21;;;;;;;2.80;0.90;;;21.90;65.30;;;;;;5042731;28;20452;-72
2023/08/04 12:31:49;;;;;;;3.13;0.87;;;21.90;65.30;;;;;;5040847;28;20057;-72
2023/08/04 12:34:15;;;;;;;2.00;0.57;;;21.90;64.70;;;;;;5033576;28;20037;-73
2023/08/04 12:36:44;;;;;;;3.83;0.90;;;21.90;65.40;;;;;;5030864;28;20033;-72
2023/08/04 12:39:11;;;;;;;3.57;0.70;;;21.90;65.20;;;;;;5046483;28;20049;-72
2023/08/04 12:41:41;;;;;;;5.47;0.97;;;21.80;64.80;;;;;;5063851;28;20041;-71
2023/08/04 12:44:07;;;;;;;3.57;0.90;;;21.80;65.60;;;;;;5039869;28;20077;-72
2023/08/04 12:46:32;;;;;;;6.57;0.90;;;21.90;65.30;;;;;;5038186;28;20094;-73